createdAt,value
2022-11-29T00:02:17.451Z,101390.0
2022-11-29T00:07:17.389Z,101390.0
2022-11-29T00:12:17.443Z,101390.0
2022-11-29T00:17:17.356Z,101400.0
2022-11-29T00:22:17.349Z,101390.0
2022-11-29T00:27:17.355Z,101400.0
2022-11-29T00:32:17.362Z,101400.0
2022-11-29T00:37:17.267Z,101390.0
2022-11-29T00:42:17.369Z,101400.0
2022-11-29T00:47:17.385Z,101410.0
2022-11-29T00:52:17.369Z,101410.0
2022-11-29T00:57:17.389Z,101400.0
2022-11-29T01:02:17.420Z,101410.0
2022-11-29T01:07:17.457Z,101410.0
2022-11-29T01:12:17.380Z,101410.0
2022-11-29T01:17:17.379Z,101410.0
2022-11-29T01:22:17.387Z,101400.0
2022-11-29T01:27:17.380Z,101410.0
2022-11-29T01:32:17.390Z,101420.0
2022-11-29T01:37:17.387Z,101410.0
2022-11-29T01:42:17.397Z,101410.0
2022-11-29T01:47:17.400Z,101410.0
2022-11-29T01:52:17.398Z,101420.0
2022-11-29T01:57:17.400Z,101420.0
2022-11-29T02:02:17.445Z,101430.0
2022-11-29T02:07:17.492Z,101440.0
2022-11-29T02:12:17.417Z,101430.0
2022-11-29T02:17:17.413Z,101430.0
2022-11-29T02:22:17.411Z,101440.0
2022-11-29T02:27:17.412Z,101430.0
2022-11-29T02:32:17.417Z,101440.0
2022-11-29T02:37:17.419Z,101450.0
2022-11-29T02:42:17.418Z,101450.0
2022-11-29T02:47:17.425Z,101460.0
2022-11-29T02:52:17.426Z,101450.0
2022-11-29T02:57:17.431Z,101450.0
2022-11-29T03:02:17.507Z,101460.0
2022-11-29T03:07:17.527Z,101460.0
2022-11-29T03:12:17.438Z,101470.0
2022-11-29T03:17:17.440Z,101470.0
2022-11-29T03:22:17.448Z,101470.0
2022-11-29T03:27:17.441Z,101470.0
2022-11-29T03:32:17.472Z,101480.0
2022-11-29T03:37:17.454Z,101490.0
2022-11-29T03:42:17.462Z,101480.0
2022-11-29T03:47:17.459Z,101500.0
2022-11-29T03:52:17.464Z,101500.0
2022-11-29T03:57:17.465Z,101510.0
2022-11-29T04:02:17.566Z,101520.0
2022-11-29T04:12:17.471Z,101530.0
2022-11-29T04:17:17.471Z,101530.0
2022-11-29T04:22:17.499Z,101530.0
2022-11-29T04:27:17.485Z,101530.0
2022-11-29T04:32:17.498Z,101530.0
2022-11-29T04:37:17.487Z,101530.0
2022-11-29T04:42:17.493Z,101540.0
2022-11-29T04:47:17.500Z,101550.0
2022-11-29T04:52:17.497Z,101550.0
2022-11-29T04:57:17.564Z,101550.0
2022-11-29T05:02:17.628Z,101560.0
2022-11-29T05:07:17.625Z,101570.0
2022-11-29T05:12:17.508Z,101580.0
2022-11-29T05:17:17.513Z,101570.0
2022-11-29T05:22:17.512Z,101590.0
2022-11-29T05:27:17.537Z,101590.0
2022-11-29T05:32:17.530Z,101600.0
2022-11-29T05:37:17.577Z,101600.0
2022-11-29T05:42:17.605Z,101610.0
2022-11-29T05:47:17.527Z,101600.0
2022-11-29T05:52:17.527Z,101610.0
2022-11-29T05:57:17.527Z,101620.0
2022-11-29T06:02:17.645Z,101630.0
2022-11-29T06:07:17.568Z,101640.0
2022-11-29T06:12:21.051Z,101630.0
2022-11-29T06:17:17.444Z,101650.0
2022-11-29T06:22:17.454Z,101650.0
2022-11-29T06:27:17.546Z,101650.0
2022-11-29T06:32:17.553Z,101650.0
2022-11-29T06:37:17.548Z,101660.0
2022-11-29T06:42:17.552Z,101670.0
2022-11-29T06:47:17.558Z,101670.0
2022-11-29T06:52:17.555Z,101690.0
2022-11-29T06:57:17.558Z,101690.0
2022-11-29T07:02:17.620Z,101700.0
2022-11-29T07:07:17.637Z,101710.0
2022-11-29T07:12:17.567Z,101700.0
2022-11-29T07:17:17.570Z,101710.0
2022-11-29T07:27:17.578Z,101720.0
2022-11-29T07:32:17.581Z,101720.0
2022-11-29T07:37:17.583Z,101730.0
2022-11-29T07:42:17.584Z,101740.0
2022-11-29T07:47:17.599Z,101740.0
2022-11-29T07:52:17.594Z,101740.0
2022-11-29T07:57:17.601Z,101740.0
2022-11-29T08:02:17.725Z,101740.0
2022-11-29T08:07:17.650Z,101740.0
2022-11-29T08:12:17.606Z,101750.0
2022-11-29T08:17:17.608Z,101750.0
2022-11-29T08:22:17.606Z,101750.0
2022-11-29T08:27:17.611Z,101760.0
2022-11-29T08:32:17.624Z,101760.0
2022-11-29T08:37:17.622Z,101770.0
2022-11-29T08:42:17.619Z,101780.0
2022-11-29T08:47:17.617Z,101800.0
2022-11-29T08:52:17.627Z,101800.0
2022-11-29T08:57:39.107Z,101800.0
2022-11-29T09:02:17.724Z,101800.0
2022-11-29T09:07:17.804Z,101810.0
2022-11-29T09:12:17.635Z,101810.0
2022-11-29T09:17:17.646Z,101810.0
2022-11-29T09:22:17.648Z,101820.0
2022-11-29T09:27:17.649Z,101830.0
2022-11-29T09:32:17.756Z,101840.0
2022-11-29T09:37:17.649Z,101850.0
2022-11-29T09:42:17.651Z,101850.0
2022-11-29T09:47:17.649Z,101850.0
2022-11-29T09:52:17.660Z,101860.0
2022-11-29T09:57:17.654Z,101850.0
2022-11-29T10:02:21.292Z,101860.0
2022-11-29T10:07:17.717Z,101850.0
2022-11-29T10:12:17.817Z,101860.0
2022-11-29T10:17:17.673Z,101860.0
2022-11-29T10:22:17.744Z,101860.0
2022-11-29T10:27:17.675Z,101860.0
2022-11-29T10:32:17.686Z,101860.0
2022-11-29T10:37:17.680Z,101850.0
2022-11-29T10:42:17.680Z,101860.0
2022-11-29T10:47:17.691Z,101860.0
2022-11-29T10:52:17.853Z,101850.0
2022-11-29T10:57:17.658Z,101840.0
2022-11-29T11:02:17.754Z,101850.0
2022-11-29T11:07:17.722Z,101850.0
2022-11-29T11:12:17.850Z,101850.0
2022-11-29T11:17:17.707Z,101860.0
2022-11-29T11:22:17.704Z,101850.0
2022-11-29T11:27:17.717Z,101860.0
2022-11-29T11:37:17.714Z,101870.0
2022-11-29T11:42:17.621Z,101870.0
2022-11-29T11:47:17.715Z,101880.0
2022-11-29T11:52:17.729Z,101890.0
2022-11-29T11:57:17.725Z,101900.0
2022-11-29T12:02:17.772Z,101880.0
2022-11-29T12:07:17.762Z,101890.0
2022-11-29T12:12:17.737Z,101890.0
2022-11-29T12:17:20.214Z,101900.0
2022-11-29T12:22:17.638Z,101910.0
2022-11-29T12:27:17.658Z,101920.0
2022-11-29T12:32:17.642Z,101910.0
2022-11-29T12:37:17.650Z,101920.0
2022-11-29T12:42:17.751Z,101930.0
2022-11-29T12:52:17.756Z,101930.0
2022-11-29T12:57:17.760Z,101950.0
2022-11-29T13:02:17.765Z,101960.0
2022-11-29T13:07:17.912Z,101950.0
2022-11-29T13:12:17.769Z,101950.0
2022-11-29T13:17:17.773Z,101960.0
2022-11-29T13:22:17.668Z,101970.0
2022-11-29T13:27:17.684Z,101960.0
2022-11-29T13:32:17.682Z,101970.0
2022-11-29T13:37:17.968Z,101960.0
2022-11-29T13:42:17.902Z,101970.0
2022-11-29T13:47:17.689Z,101970.0
2022-11-29T13:52:17.785Z,101970.0
2022-11-29T13:57:17.689Z,101970.0
2022-11-29T14:02:17.714Z,101960.0
2022-11-29T14:07:17.778Z,101970.0
2022-11-29T14:12:17.701Z,101960.0
2022-11-29T14:17:17.705Z,101960.0
2022-11-29T14:22:17.725Z,101970.0
2022-11-29T14:27:17.720Z,101970.0
2022-11-29T14:32:17.715Z,101980.0
2022-11-29T14:37:17.720Z,101990.0
2022-11-29T14:42:17.812Z,101990.0
2022-11-29T14:47:17.720Z,101990.0
2022-11-29T14:52:17.726Z,101990.0
2022-11-29T14:57:17.727Z,101980.0
2022-11-29T15:02:17.828Z,101980.0
2022-11-29T15:07:17.821Z,101990.0
2022-11-29T15:12:17.726Z,101990.0
2022-11-29T15:17:17.789Z,101980.0
2022-11-29T15:22:17.735Z,102000.0
2022-11-29T15:27:17.757Z,101990.0
2022-11-29T15:32:17.744Z,101990.0
2022-11-29T15:37:17.749Z,102000.0
2022-11-29T15:42:17.762Z,102000.0
2022-11-29T15:47:17.757Z,102000.0
2022-11-29T15:52:20.555Z,102000.0
2022-11-29T15:57:17.754Z,102000.0
2022-11-29T16:02:17.903Z,102020.0
2022-11-29T16:07:17.817Z,102000.0
2022-11-29T16:12:17.863Z,102010.0
2022-11-29T16:17:17.859Z,102000.0
2022-11-29T16:22:17.869Z,102010.0
2022-11-29T16:27:17.872Z,102000.0
2022-11-29T16:32:17.982Z,102010.0
2022-11-29T16:37:17.873Z,102010.0
2022-11-29T16:42:23.611Z,102020.0
2022-11-29T16:47:17.881Z,102030.0
2022-11-29T16:52:18.021Z,102030.0
2022-11-29T16:57:17.877Z,102030.0
2022-11-29T17:02:17.951Z,102040.0
2022-11-29T17:07:17.942Z,102030.0
2022-11-29T17:12:17.893Z,102030.0
2022-11-29T17:17:17.897Z,102040.0
2022-11-29T17:22:17.896Z,102040.0
2022-11-29T17:27:17.902Z,102030.0
2022-11-29T17:32:21.985Z,102050.0
2022-11-29T17:37:17.925Z,102050.0
2022-11-29T17:42:17.931Z,102050.0
2022-11-29T17:47:17.909Z,102040.0
2022-11-29T17:52:18.065Z,102050.0
2022-11-29T17:57:17.927Z,102060.0
2022-11-29T18:02:18.007Z,102070.0
2022-11-29T18:07:17.969Z,102070.0
2022-11-29T18:12:17.939Z,102070.0
2022-11-29T18:17:17.932Z,102080.0
2022-11-29T18:22:17.929Z,102080.0
2022-11-29T18:27:17.930Z,102080.0
2022-11-29T18:32:17.938Z,102080.0
2022-11-29T18:37:32.863Z,102090.0
2022-11-29T18:42:17.938Z,102080.0
2022-11-29T18:47:17.942Z,102080.0
2022-11-29T18:52:17.963Z,102080.0
2022-11-29T18:57:17.947Z,102080.0
2022-11-29T19:02:17.983Z,102080.0
2022-11-29T19:07:18.036Z,102080.0
2022-11-29T19:12:17.964Z,102080.0
2022-11-29T19:17:17.963Z,102090.0
2022-11-29T19:22:18.016Z,102090.0
2022-11-29T19:27:17.959Z,102100.0
2022-11-29T19:32:17.966Z,102100.0
2022-11-29T19:37:18.204Z,102110.0
2022-11-29T19:42:18.015Z,102110.0
2022-11-29T19:47:17.971Z,102110.0
2022-11-29T19:52:17.980Z,102100.0
2022-11-29T19:57:17.983Z,102100.0
2022-11-29T20:02:18.147Z,102110.0
2022-11-29T20:07:18.035Z,102110.0
2022-11-29T20:12:17.991Z,102120.0
2022-11-29T20:17:18.393Z,102120.0
2022-11-29T20:22:18.028Z,102120.0
2022-11-29T20:27:17.999Z,102120.0
2022-11-29T20:32:17.999Z,102130.0
2022-11-29T20:37:17.999Z,102130.0
2022-11-29T20:42:18.000Z,102130.0
2022-11-29T20:47:18.008Z,102130.0
2022-11-29T20:52:18.167Z,102130.0
2022-11-29T20:57:18.015Z,102140.0
2022-11-29T21:02:18.013Z,102140.0
2022-11-29T21:07:18.096Z,102130.0
2022-11-29T21:12:18.020Z,102140.0
2022-11-29T21:17:18.153Z,102140.0
2022-11-29T21:22:18.156Z,102140.0
2022-11-29T21:27:18.029Z,102140.0
2022-11-29T21:32:19.388Z,102140.0
2022-11-29T21:37:18.041Z,102140.0
2022-11-29T21:42:18.040Z,102150.0
2022-11-29T21:47:18.039Z,102150.0
2022-11-29T21:52:22.527Z,102160.0
2022-11-29T21:57:18.045Z,102160.0
2022-11-29T22:02:18.277Z,102160.0
2022-11-29T22:07:18.101Z,102160.0
2022-11-29T22:12:33.761Z,102160.0
2022-11-29T22:17:18.248Z,102170.0
2022-11-29T22:22:18.056Z,102160.0
2022-11-29T22:27:18.064Z,102160.0
2022-11-29T22:32:18.147Z,102160.0
2022-11-29T22:37:18.060Z,102160.0
2022-11-29T22:42:18.070Z,102170.0
2022-11-29T22:47:18.075Z,102160.0
2022-11-29T22:52:18.074Z,102170.0
2022-11-29T22:57:18.083Z,102170.0
2022-11-29T23:02:18.112Z,102170.0
2022-11-29T23:07:18.194Z,102180.0
2022-11-29T23:12:18.081Z,102180.0
2022-11-29T23:17:18.100Z,102180.0
2022-11-29T23:22:18.092Z,102180.0
2022-11-29T23:27:18.092Z,102180.0
2022-11-29T23:32:18.094Z,102180.0
2022-11-29T23:37:18.103Z,102180.0
2022-11-29T23:42:18.153Z,102190.0
2022-11-29T23:47:18.105Z,102180.0
2022-11-29T23:52:18.112Z,102190.0
2022-11-29T23:57:18.146Z,102190.0
